Time;durP1;ratioP1;P1;durP2;ratioP2;P2;SDS_P1;SDS_P2;PMS_P1;PMS_P2;Temp;Humidity;BMP_temperature;BMP_pressure;BME280_temperature;BME280_humidity;BME280_pressure;Samples;Min_cycle;Max_cycle;Signal;HPM_P1;HPM_P2
2024/02/07 00:00:23;;;;;;;11.75;1.85;;;6.50;99.90;;;;;;5064905;28;20036;-48
2024/02/07 00:02:48;;;;;;;11.25;1.52;;;6.50;99.90;;;;;;5064858;28;20167;-46
2024/02/07 00:05:14;;;;;;;7.28;1.77;;;6.50;99.90;;;;;;5064466;28;20033;-48
2024/02/07 00:07:40;;;;;;;8.90;2.35;;;6.50;99.90;;;;;;5064751;28;20041;-47
2024/02/07 00:10:06;;;;;;;9.07;1.75;;;6.50;99.90;;;;;;5064718;28;20035;-47
2024/02/07 00:12:32;;;;;;;6.40;2.00;;;6.40;99.90;;;;;;5064847;28;20033;-48
2024/02/07 00:14:57;;;;;;;4.65;1.45;;;6.50;99.90;;;;;;5064769;28;20037;-46
2024/02/07 00:17:23;;;;;;;6.55;1.48;;;6.40;99.90;;;;;;5064441;28;20202;-47
2024/02/07 00:19:50;;;;;;;5.68;1.60;;;6.40;99.90;;;;;;5064911;28;20152;-50
2024/02/07 00:22:16;;;;;;;9.95;2.00;;;6.40;99.90;;;;;;5064598;28;20029;-47
2024/02/07 00:24:42;;;;;;;5.20;1.52;;;6.50;99.90;;;;;;5063586;28;20036;-49
2024/02/07 00:27:08;;;;;;;9.20;2.10;;;6.40;99.90;;;;;;5064652;28;20243;-48
2024/02/07 00:29:33;;;;;;;6.30;1.60;;;6.40;99.90;;;;;;5063681;28;20187;-49
2024/02/07 00:31:59;;;;;;;6.13;1.58;;;6.40;99.90;;;;;;5064394;28;20205;-48
2024/02/07 00:34:25;;;;;;;6.82;1.50;;;6.40;99.90;;;;;;5064407;28;20063;-49
2024/02/07 00:36:50;;;;;;;6.63;1.40;;;6.40;99.90;;;;;;5064660;28;20037;-49
2024/02/07 00:39:16;;;;;;;4.07;1.38;;;6.40;99.90;;;;;;5064619;28;20079;-49
2024/02/07 00:41:41;;;;;;;6.47;1.30;;;6.50;99.90;;;;;;5064324;28;20080;-49
2024/02/07 00:44:07;;;;;;;7.60;1.75;;;6.50;99.90;;;;;;5064316;28;20041;-48
2024/02/07 00:46:33;;;;;;;6.68;1.60;;;6.50;99.90;;;;;;5063429;28;20025;-47
2024/02/07 00:49:01;;;;;;;7.93;1.70;;;6.40;99.90;;;;;;5063297;28;20040;-48
2024/02/07 00:51:27;;;;;;;9.85;1.88;;;6.40;99.90;;;;;;5064366;28;20114;-47
2024/02/07 00:53:53;;;;;;;4.75;1.33;;;6.40;99.90;;;;;;5064259;28;20052;-48
2024/02/07 00:56:18;;;;;;;6.32;1.50;;;6.40;99.90;;;;;;5064390;28;20100;-47
2024/02/07 00:58:44;;;;;;;7.72;1.77;;;6.40;99.90;;;;;;5064424;28;20031;-47
2024/02/07 01:01:10;;;;;;;6.30;1.80;;;6.40;99.90;;;;;;5064284;28;20029;-47
2024/02/07 01:03:36;;;;;;;6.15;1.40;;;6.40;99.90;;;;;;5067054;28;20032;-47
2024/02/07 01:06:02;;;;;;;6.63;1.38;;;6.40;99.90;;;;;;5067901;28;20092;-46
2024/02/07 01:08:28;;;;;;;7.95;1.40;;;6.40;99.90;;;;;;5067584;28;20044;-48
2024/02/07 01:10:53;;;;;;;8.77;1.52;;;6.40;99.90;;;;;;5068105;28;20304;-47
2024/02/07 01:13:19;;;;;;;7.85;1.77;;;6.40;99.90;;;;;;5068010;28;20024;-48
2024/02/07 01:15:45;;;;;;;7.72;1.52;;;6.40;99.90;;;;;;5066465;28;20118;-46
2024/02/07 01:18:10;;;;;;;8.80;1.92;;;6.40;99.90;;;;;;5067446;28;20401;-46
2024/02/07 01:20:36;;;;;;;8.85;1.40;;;6.40;99.90;;;;;;5067898;28;20075;-48
2024/02/07 01:23:02;;;;;;;6.72;1.60;;;6.40;99.90;;;;;;5067848;28;20095;-48
2024/02/07 01:25:27;;;;;;;5.90;2.00;;;6.40;99.90;;;;;;5067860;28;20040;-49
2024/02/07 01:27:54;;;;;;;5.70;1.73;;;6.40;99.90;;;;;;5067412;28;20024;-50
2024/02/07 01:30:20;;;;;;;6.85;1.45;;;6.40;99.90;;;;;;5067561;28;20077;-50
2024/02/07 01:32:45;;;;;;;8.40;1.38;;;6.40;99.90;;;;;;5067551;28;20052;-47
2024/02/07 01:35:11;;;;;;;8.10;1.92;;;6.40;99.90;;;;;;5067510;28;20274;-47
2024/02/07 01:37:40;;;;;;;8.90;1.83;;;6.40;99.90;;;;;;5067406;28;20029;-47
2024/02/07 01:40:09;;;;;;;8.20;1.52;;;6.40;99.90;;;;;;5066122;28;20313;-47
2024/02/07 01:42:35;;;;;;;5.57;1.03;;;6.40;99.90;;;;;;5066262;28;20017;-47
2024/02/07 01:45:22;;;;;;;5.43;1.30;;;6.40;99.90;;;;;;5066158;28;20044;-47
2024/02/07 01:47:49;;;;;;;10.75;2.28;;;6.40;99.90;;;;;;5067322;28;20214;-47
2024/02/07 01:50:15;;;;;;;6.60;2.03;;;6.30;99.90;;;;;;5067125;28;20096;-46
2024/02/07 01:52:41;;;;;;;7.68;1.38;;;6.40;99.90;;;;;;5049690;28;20074;-47
2024/02/07 01:55:07;;;;;;;9.32;1.85;;;6.40;99.90;;;;;;5067217;28;20025;-47
2024/02/07 01:57:33;;;;;;;6.22;1.38;;;6.40;99.90;;;;;;5067034;28;20025;-48
2024/02/07 01:59:59;;;;;;;8.93;1.98;;;6.40;99.90;;;;;;5065812;28;20126;-48
2024/02/07 02:02:25;;;;;;;7.15;1.50;;;6.40;99.90;;;;;;5066973;28;20334;-48
2024/02/07 02:04:51;;;;;;;6.40;1.40;;;6.50;99.90;;;;;;5049492;28;20024;-47
2024/02/07 02:07:18;;;;;;;9.35;1.50;;;6.50;99.90;;;;;;5067394;28;20035;-47
2024/02/07 02:09:44;;;;;;;13.10;2.10;;;6.50;99.90;;;;;;5066764;28;20028;-48
2024/02/07 02:12:10;;;;;;;10.15;1.50;;;6.50;99.90;;;;;;5048836;28;20064;-48
2024/02/07 02:14:35;;;;;;;8.93;1.40;;;6.50;99.90;;;;;;5065554;28;20044;-48
2024/02/07 02:17:01;;;;;;;7.88;1.50;;;6.50;99.90;;;;;;5065547;28;20108;-49
2024/02/07 02:19:26;;;;;;;6.43;1.73;;;6.50;99.90;;;;;;5066455;28;20195;-49
2024/02/07 02:22:15;;;;;;;6.43;1.13;;;6.50;99.90;;;;;;5066277;28;20033;-49
2024/02/07 02:25:03;;;;;;;7.55;1.40;;;6.50;99.90;;;;;;5066471;28;20064;-48
2024/02/07 02:27:32;;;;;;;6.35;1.30;;;6.50;99.90;;;;;;5065313;28;20402;-50
2024/02/07 02:29:58;;;;;;;9.10;1.30;;;6.50;99.90;;;;;;5066235;28;20036;-49
2024/02/07 02:32:24;;;;;;;6.47;1.20;;;6.40;99.90;;;;;;5065124;28;20083;-46
2024/02/07 02:34:50;;;;;;;7.53;1.42;;;6.30;99.90;;;;;;5048665;28;20020;-46
2024/02/07 02:37:17;;;;;;;9.48;2.03;;;6.40;99.90;;;;;;5066642;28;20092;-47
2024/02/07 02:39:43;;;;;;;8.30;1.40;;;6.40;99.90;;;;;;5065074;28;20028;-46
2024/02/07 02:42:09;;;;;;;3.85;1.05;;;6.50;99.90;;;;;;5065202;28;20028;-47
2024/02/07 02:44:35;;;;;;;6.57;1.55;;;6.40;99.90;;;;;;5065842;28;20088;-47
2024/02/07 02:47:02;;;;;;;10.70;2.15;;;6.40;99.90;;;;;;5065179;28;20044;-47
2024/02/07 02:49:28;;;;;;;10.50;1.33;;;6.40;99.90;;;;;;5066234;28;20275;-47
2024/02/07 02:51:55;;;;;;;6.50;1.20;;;6.40;99.90;;;;;;5065866;28;20032;-48
2024/02/07 02:54:21;;;;;;;5.47;1.48;;;6.40;99.90;;;;;;5065794;28;20036;-49
2024/02/07 02:56:47;;;;;;;9.77;1.50;;;6.40;99.90;;;;;;5064912;28;20096;-46
2024/02/07 02:59:14;;;;;;;6.07;1.50;;;6.40;99.90;;;;;;5065319;28;20025;-49
2024/02/07 03:01:40;;;;;;;6.50;1.50;;;6.50;99.90;;;;;;5065724;28;20033;-47
2024/02/07 03:04:06;;;;;;;7.20;1.38;;;6.50;99.90;;;;;;5064600;28;20039;-49
2024/02/07 03:06:50;;;;;;;7.38;1.50;;;6.40;99.90;;;;;;5065750;28;20309;-47
2024/02/07 03:09:20;;;;;;;7.45;1.27;;;6.40;99.90;;;;;;5065768;28;20040;-47
2024/02/07 03:11:48;;;;;;;8.23;1.50;;;6.40;99.90;;;;;;5065634;28;20029;-48
2024/02/07 03:14:14;;;;;;;7.75;1.40;;;6.40;99.90;;;;;;5064872;28;20270;-47
2024/02/07 03:16:39;;;;;;;8.18;1.25;;;6.40;99.90;;;;;;5065494;28;20048;-48
2024/02/07 03:19:05;;;;;;;11.50;1.77;;;6.40;99.90;;;;;;5065656;28;20274;-48
2024/02/07 03:21:31;;;;;;;9.07;1.70;;;6.40;99.90;;;;;;5065488;28;20120;-49
2024/02/07 03:23:56;;;;;;;6.97;1.10;;;6.40;99.90;;;;;;5065333;28;20052;-50
2024/02/07 03:26:23;;;;;;;7.68;1.80;;;6.40;99.90;;;;;;5064838;28;20048;-47
2024/02/07 03:28:50;;;;;;;7.57;1.75;;;6.30;99.90;;;;;;5065448;28;20044;-47
2024/02/07 03:31:17;;;;;;;5.95;1.15;;;6.30;99.90;;;;;;5065408;28;20032;-47
2024/02/07 03:33:43;;;;;;;7.22;1.48;;;6.30;99.90;;;;;;5065079;28;20031;-46
2024/02/07 03:36:10;;;;;;;6.15;1.60;;;6.40;99.90;;;;;;5065073;28;20065;-47
2024/02/07 03:38:36;;;;;;;6.32;1.20;;;6.40;99.90;;;;;;5064123;28;20020;-46
2024/02/07 03:41:01;;;;;;;4.40;1.10;;;6.30;99.90;;;;;;5064173;28;20240;-49
2024/02/07 03:43:27;;;;;;;7.85;1.30;;;6.20;99.90;;;;;;5065093;28;20035;-47
2024/02/07 03:45:53;;;;;;;3.95;1.15;;;6.10;99.90;;;;;;5064915;28;20040;-47
2024/02/07 03:48:19;;;;;;;6.32;1.42;;;6.10;99.90;;;;;;5065115;28;20033;-48
2024/02/07 03:50:48;;;;;;;5.07;1.08;;;6.00;99.90;;;;;;5065099;28;20032;-49
2024/02/07 03:53:14;;;;;;;3.15;1.00;;;5.90;99.90;;;;;;5063813;28;20044;-50
2024/02/07 03:55:40;;;;;;;6.57;1.02;;;5.90;99.90;;;;;;5047287;28;20041;-49
2024/02/07 03:58:06;;;;;;;6.72;1.10;;;5.80;99.90;;;;;;5063960;28;20025;-50
2024/02/07 04:00:33;;;;;;;3.70;1.20;;;5.60;99.90;;;;;;5064769;28;20127;-49
2024/02/07 04:02:59;;;;;;;6.38;1.48;;;5.50;99.90;;;;;;5046953;28;20029;-46
2024/02/07 04:05:25;;;;;;;7.30;1.30;;;5.40;99.90;;;;;;5047548;28;20043;-49
2024/02/07 04:07:50;;;;;;;7.90;1.08;;;5.40;99.90;;;;;;5064712;28;20311;-49
2024/02/07 04:10:18;;;;;;;10.25;1.17;;;5.30;99.90;;;;;;5063625;28;20071;-48
2024/02/07 05:15:38;;;;;;;7.53;1.35;;;3.80;99.90;;;;;;5067751;28;20052;-45
2024/02/07 05:18:03;;;;;;;9.23;1.70;;;3.80;99.90;;;;;;5067444;28;20171;-45
2024/02/07 05:20:29;;;;;;;3.88;1.27;;;3.90;99.90;;;;;;5067739;28;20087;-44
2024/02/07 05:22:55;;;;;;;5.13;1.27;;;4.00;99.90;;;;;;5067909;28;20024;-45
2024/02/07 05:25:22;;;;;;;5.15;1.38;;;3.90;99.90;;;;;;5067316;28;20044;-45
2024/02/07 05:27:48;;;;;;;5.00;1.40;;;3.70;99.90;;;;;;5049808;28;20271;-45
2024/02/07 05:30:14;;;;;;;7.97;1.58;;;3.60;99.90;;;;;;5067549;28;20090;-45
2024/02/07 05:32:44;;;;;;;6.25;1.25;;;3.80;99.90;;;;;;5067572;28;20116;-45
2024/02/07 05:35:10;;;;;;;7.05;1.10;;;3.90;99.90;;;;;;5066434;28;20370;-46
2024/02/07 05:37:36;;;;;;;6.38;1.40;;;3.90;99.90;;;;;;5067223;28;20033;-45
2024/02/07 05:40:03;;;;;;;6.55;1.27;;;3.90;99.90;;;;;;5067542;28;20078;-46
2024/02/07 05:42:28;;;;;;;6.88;1.27;;;3.90;99.90;;;;;;5067384;28;20096;-46
2024/02/07 05:44:54;;;;;;;6.93;1.48;;;3.80;99.90;;;;;;5067334;28;20029;-46
2024/02/07 05:47:20;;;;;;;6.70;2.00;;;3.80;99.90;;;;;;5067332;28;20045;-44
2024/02/07 05:49:46;;;;;;;8.68;4.05;;;3.70;99.90;;;;;;5066549;28;20029;-45
2024/02/07 05:52:12;;;;;;;6.35;2.95;;;3.70;99.90;;;;;;5066951;28;20028;-45
2024/02/07 05:54:37;;;;;;;5.07;2.30;;;3.70;99.90;;;;;;5066059;28;20061;-46
2024/02/07 05:57:03;;;;;;;9.55;1.88;;;3.60;99.90;;;;;;5067062;28;20036;-45
2024/02/07 05:59:29;;;;;;;6.55;1.67;;;3.60;99.90;;;;;;5067007;28;20028;-47
2024/02/07 06:01:54;;;;;;;5.50;1.38;;;3.60;99.90;;;;;;5066912;28;20025;-45
2024/02/07 06:04:20;;;;;;;4.85;1.50;;;3.60;99.90;;;;;;5066917;28;20047;-45
2024/02/07 06:06:46;;;;;;;8.48;1.42;;;3.70;99.90;;;;;;5065791;28;20033;-45
2024/02/07 06:09:13;;;;;;;6.15;1.70;;;3.70;99.90;;;;;;5066357;28;20033;-45
2024/02/07 06:11:41;;;;;;;5.55;1.50;;;3.70;99.90;;;;;;5066584;28;20028;-53
2024/02/07 06:14:16;;;;;;;4.75;1.50;;;3.80;99.90;;;;;;5066581;28;20025;-47
2024/02/07 06:16:42;;;;;;;6.35;1.48;;;3.60;99.90;;;;;;5065367;28;20122;-46
2024/02/07 06:19:07;;;;;;;6.13;1.30;;;3.50;99.90;;;;;;5066683;28;20290;-46
2024/02/07 06:21:33;;;;;;;6.68;1.75;;;3.40;99.90;;;;;;5066520;28;20028;-45
2024/02/07 06:23:59;;;;;;;4.65;1.05;;;3.50;99.90;;;;;;5066819;28;20029;-45
2024/02/07 06:26:24;;;;;;;5.00;1.55;;;3.70;99.90;;;;;;5066320;28;20043;-47
2024/02/07 06:28:50;;;;;;;7.00;1.50;;;3.70;99.90;;;;;;5065355;28;20040;-45
2024/02/07 06:31:17;;;;;;;5.65;1.55;;;3.80;99.90;;;;;;5066333;28;20032;-45
2024/02/07 06:33:43;;;;;;;7.38;1.67;;;3.80;99.90;;;;;;5066397;28;20272;-44
2024/02/07 06:36:08;;;;;;;16.95;7.47;;;3.90;99.90;;;;;;5066007;28;20036;-43
2024/02/07 06:38:34;;;;;;;7.65;2.03;;;4.00;99.90;;;;;;5065072;28;20116;-46
2024/02/07 06:41:00;;;;;;;3.95;1.30;;;3.90;99.90;;;;;;5065616;28;20036;-45
2024/02/07 06:43:27;;;;;;;5.97;1.73;;;3.90;99.90;;;;;;5064944;28;20057;-44
2024/02/07 06:45:52;;;;;;;6.72;1.60;;;3.90;99.90;;;;;;5066079;28;20077;-46
2024/02/07 06:48:19;;;;;;;8.43;1.58;;;3.80;99.90;;;;;;5066101;28;20178;-45
2024/02/07 06:50:44;;;;;;;6.32;1.45;;;3.70;99.90;;;;;;5064845;28;20195;-47
2024/02/07 06:53:10;;;;;;;5.30;1.55;;;3.90;99.90;;;;;;5065924;28;20029;-45
2024/02/07 06:55:36;;;;;;;7.70;1.60;;;3.90;99.90;;;;;;5065310;28;20039;-45
2024/02/07 06:58:02;;;;;;;5.78;1.50;;;4.00;99.90;;;;;;5065014;28;20040;-44
2024/02/07 07:00:27;;;;;;;7.15;2.42;;;4.00;99.90;;;;;;5065041;28;20139;-44
2024/02/07 07:02:53;;;;;;;6.78;1.70;;;4.10;99.90;;;;;;5065877;28;20029;-47
2024/02/07 07:05:19;;;;;;;7.53;1.88;;;4.10;99.90;;;;;;5065758;28;20037;-47
2024/02/07 07:07:44;;;;;;;5.88;1.80;;;4.20;99.90;;;;;;5065790;28;20047;-44
2024/02/07 07:10:10;;;;;;;6.22;1.58;;;4.00;99.90;;;;;;5065341;28;20029;-46
2024/02/07 07:12:36;;;;;;;7.57;1.30;;;3.90;99.90;;;;;;5065147;28;20085;-47
2024/02/07 07:15:02;;;;;;;5.00;2.00;;;4.00;99.90;;;;;;5065504;28;20119;-44
2024/02/07 07:17:27;;;;;;;4.43;1.60;;;4.00;99.90;;;;;;5065454;28;20159;-44
2024/02/07 07:19:53;;;;;;;5.53;1.42;;;4.10;99.90;;;;;;5047603;28;20033;-45
2024/02/07 07:22:19;;;;;;;10.20;2.00;;;4.20;99.90;;;;;;5064340;28;20060;-45
2024/02/07 07:24:47;;;;;;;8.68;2.53;;;4.30;99.90;;;;;;5065393;28;20135;-45
2024/02/07 07:27:13;;;;;;;5.85;2.55;;;4.30;99.90;;;;;;5065368;28;20282;-45
2024/02/07 07:29:38;;;;;;;9.27;1.95;;;4.30;99.90;;;;;;5064061;28;20043;-47
2024/02/07 07:32:04;;;;;;;5.70;1.70;;;4.30;99.90;;;;;;5065098;28;20036;-46
2024/02/07 07:34:30;;;;;;;8.25;2.55;;;4.30;99.90;;;;;;5065102;28;20048;-47
2024/02/07 07:36:56;;;;;;;8.48;2.60;;;4.30;99.90;;;;;;5065048;28;20283;-45
2024/02/07 07:39:21;;;;;;;6.35;2.05;;;4.40;99.90;;;;;;5065081;28;20225;-46
2024/02/07 07:41:47;;;;;;;5.40;2.50;;;4.40;99.90;;;;;;5064748;28;20092;-45
2024/02/07 07:44:13;;;;;;;7.47;2.10;;;4.50;99.90;;;;;;5064634;28;20037;-46
2024/02/07 07:46:38;;;;;;;6.22;1.65;;;4.50;99.90;;;;;;5064816;28;20192;-45
2024/02/07 07:49:04;;;;;;;7.95;1.90;;;4.50;99.90;;;;;;5063708;28;20100;-48
2024/02/07 07:51:29;;;;;;;11.35;6.82;;;4.50;99.90;;;;;;5064471;28;20044;-45
2024/02/07 07:53:55;;;;;;;7.15;2.67;;;4.50;99.90;;;;;;5064484;28;20178;-45
2024/02/07 07:56:21;;;;;;;5.70;1.98;;;4.40;99.90;;;;;;5064444;28;20056;-44
2024/02/07 07:58:49;;;;;;;10.90;1.98;;;4.50;99.90;;;;;;5064657;28;20093;-48
2024/02/07 08:01:21;;;;;;;7.88;2.28;;;4.50;99.90;;;;;;5064998;28;20033;-45
2024/02/07 08:03:47;;;;;;;9.02;2.20;;;4.40;99.90;;;;;;5064523;28;20306;-48
2024/02/07 08:06:14;;;;;;;13.88;2.70;;;4.40;99.90;;;;;;5063710;28;20044;-48
2024/02/07 08:08:40;;;;;;;4.25;1.70;;;4.40;99.90;;;;;;5063512;28;20183;-45
2024/02/07 08:11:05;;;;;;;6.35;2.38;;;4.40;99.90;;;;;;5064554;28;20025;-44
2024/02/07 08:13:32;;;;;;;6.10;1.98;;;4.40;99.90;;;;;;5064666;28;20270;-48
2024/02/07 08:15:59;;;;;;;7.05;1.80;;;4.40;99.90;;;;;;5063130;28;20033;-46
2024/02/07 08:18:26;;;;;;;8.00;2.30;;;4.40;99.90;;;;;;5063306;28;20045;-45
2024/02/07 08:20:53;;;;;;;8.57;2.15;;;4.30;99.90;;;;;;5064641;28;20025;-47
2024/02/07 08:23:18;;;;;;;8.82;2.38;;;4.20;99.90;;;;;;5064644;28;20021;-46
2024/02/07 08:25:44;;;;;;;8.80;2.50;;;4.40;99.90;;;;;;5063264;28;20073;-46
2024/02/07 08:28:10;;;;;;;7.57;2.60;;;4.50;99.90;;;;;;5063263;28;20025;-48
2024/02/07 08:30:35;;;;;;;10.48;4.25;;;4.50;99.90;;;;;;5064315;28;20251;-47
2024/02/07 08:33:01;;;;;;;10.13;2.95;;;4.50;99.90;;;;;;5064346;28;20043;-46
2024/02/07 08:35:27;;;;;;;13.73;5.90;;;4.60;99.90;;;;;;5064190;28;20032;-47
2024/02/07 08:37:58;;;;;;;51.72;18.85;;;4.70;99.90;;;;;;5064318;28;20025;-45
2024/02/07 08:40:24;;;;;;;68.03;27.63;;;4.70;99.90;;;;;;5064251;28;20031;-47
2024/02/07 08:42:50;;;;;;;68.50;25.90;;;4.70;99.90;;;;;;5063868;28;20028;-45
2024/02/07 08:45:17;;;;;;;44.78;20.08;;;4.70;99.90;;;;;;5064464;28;20032;-48
2024/02/07 08:47:45;;;;;;;18.33;6.75;;;4.70;99.90;;;;;;5062774;28;20048;-46
2024/02/07 08:50:11;;;;;;;18.58;7.50;;;4.60;99.90;;;;;;5063233;28;20032;-45
2024/02/07 08:52:38;;;;;;;15.73;6.88;;;4.60;99.90;;;;;;5064315;28;20028;-46
2024/02/07 08:55:04;;;;;;;12.90;8.90;;;4.60;99.90;;;;;;5063117;28;20361;-47
2024/02/07 08:57:30;;;;;;;16.67;10.70;;;4.60;99.90;;;;;;5064064;28;20086;-45
2024/02/07 08:59:56;;;;;;;15.35;8.55;;;4.80;99.90;;;;;;5062899;28;20048;-45
2024/02/07 09:02:21;;;;;;;12.32;6.50;;;4.90;99.90;;;;;;5063945;28;20029;-45
2024/02/07 09:04:47;;;;;;;15.13;6.15;;;4.90;99.90;;;;;;5064294;28;20032;-45
2024/02/07 09:07:12;;;;;;;12.18;4.93;;;5.00;99.90;;;;;;5064293;28;20201;-45
2024/02/07 09:09:38;;;;;;;14.18;6.10;;;5.00;99.90;;;;;;5064108;28;20263;-45
2024/02/07 09:12:04;;;;;;;12.95;5.50;;;5.00;99.90;;;;;;5064089;28;20039;-45
2024/02/07 09:14:30;;;;;;;14.27;5.35;;;5.10;99.90;;;;;;5064296;28;20025;-47
2024/02/07 09:16:56;;;;;;;12.68;5.80;;;5.20;99.90;;;;;;5063757;28;20230;-47
2024/02/07 09:19:21;;;;;;;14.32;5.45;;;5.30;99.90;;;;;;5063806;28;20078;-51
2024/02/07 09:21:47;;;;;;;11.57;3.88;;;5.40;99.90;;;;;;5064392;28;20025;-48
2024/02/07 09:24:12;;;;;;;15.27;4.72;;;5.40;99.90;;;;;;5066221;28;20174;-48
2024/02/07 09:26:38;;;;;;;12.90;5.15;;;5.50;99.90;;;;;;5067764;28;20040;-49
2024/02/07 09:29:04;;;;;;;13.00;5.00;;;5.50;99.90;;;;;;5067704;28;20051;-48
2024/02/07 09:31:30;;;;;;;11.25;4.43;;;5.60;99.90;;;;;;5067345;28;20036;-49
2024/02/07 09:33:55;;;;;;;9.13;4.45;;;5.60;99.90;;;;;;5067243;28;20029;-49
2024/02/07 09:36:21;;;;;;;13.52;5.13;;;5.70;99.90;;;;;;5067316;28;20029;-50
2024/02/07 09:38:46;;;;;;;14.25;5.55;;;5.70;99.90;;;;;;5067236;28;20266;-49
2024/02/07 09:41:15;;;;;;;11.10;4.32;;;5.90;99.90;;;;;;5067447;28;20098;-46
2024/02/07 09:43:40;;;;;;;12.02;4.43;;;5.90;99.90;;;;;;5067283;28;20029;-49
2024/02/07 09:46:07;;;;;;;14.10;5.25;;;6.00;99.90;;;;;;5067174;28;20092;-48
2024/02/07 09:48:32;;;;;;;13.70;4.38;;;6.10;99.90;;;;;;5050006;28;20233;-47
2024/02/07 09:50:58;;;;;;;9.73;4.00;;;6.10;99.90;;;;;;5066000;28;20032;-47
2024/02/07 09:53:24;;;;;;;11.27;5.53;;;6.40;99.90;;;;;;5066884;28;20071;-47
2024/02/07 09:55:50;;;;;;;14.98;6.35;;;6.70;99.90;;;;;;5066863;28;20071;-48
2024/02/07 09:58:16;;;;;;;14.70;5.15;;;7.30;99.90;;;;;;5067057;28;20040;-47
2024/02/07 10:00:42;;;;;;;13.50;4.20;;;7.50;99.90;;;;;;5049487;28;20025;-48
2024/02/07 10:03:11;;;;;;;9.70;3.88;;;8.00;99.90;;;;;;5066014;28;20029;-48
2024/02/07 10:05:37;;;;;;;12.48;5.63;;;8.90;99.90;;;;;;5049659;28;20081;-49
2024/02/07 10:08:03;;;;;;;11.68;3.90;;;10.00;99.90;;;;;;5065756;28;20060;-47
2024/02/07 10:10:28;;;;;;;7.68;3.13;;;10.50;99.90;;;;;;5049365;28;20098;-48
2024/02/07 10:12:56;;;;;;;9.07;3.88;;;10.40;99.90;;;;;;5065595;28;20025;-49
2024/02/07 10:15:25;;;;;;;11.43;3.00;;;10.10;99.90;;;;;;5066509;28;20175;-50
2024/02/07 10:17:51;;;;;;;13.55;3.67;;;9.80;99.90;;;;;;5066507;28;20053;-51
2024/02/07 10:20:16;;;;;;;7.82;2.63;;;9.80;99.90;;;;;;5066540;28;20035;-50
2024/02/07 10:22:42;;;;;;;7.38;3.15;;;10.00;99.90;;;;;;5066652;28;20179;-51
2024/02/07 10:25:13;;;;;;;8.98;2.78;;;9.90;99.90;;;;;;5066615;28;20032;-51
2024/02/07 10:27:39;;;;;;;6.75;2.40;;;9.50;99.90;;;;;;5066393;28;20025;-51
2024/02/07 10:30:07;;;;;;;6.65;2.20;;;9.20;99.90;;;;;;5066342;28;20025;-50
2024/02/07 10:32:33;;;;;;;10.65;2.70;;;8.80;99.90;;;;;;5066612;28;20119;-51
2024/02/07 10:34:59;;;;;;;6.20;1.80;;;8.60;99.90;;;;;;5065249;28;20021;-49
2024/02/07 10:37:24;;;;;;;6.15;2.30;;;8.40;99.90;;;;;;5048707;28;20143;-50
2024/02/07 10:40:00;;;;;;;9.98;3.08;;;8.30;99.90;;;;;;5065327;28;20183;-48
2024/02/07 10:42:25;;;;;;;8.07;2.38;;;8.20;99.90;;;;;;5065541;28;20044;-48
2024/02/07 10:45:10;;;;;;;10.43;2.05;;;8.20;99.90;;;;;;5066220;28;20092;-48
2024/02/07 10:47:36;;;;;;;8.35;2.40;;;8.30;99.90;;;;;;5065808;28;20108;-48
2024/02/07 10:50:03;;;;;;;8.60;2.10;;;8.80;99.90;;;;;;5066024;28;20029;-48
2024/02/07 10:52:28;;;;;;;9.27;2.00;;;9.20;99.90;;;;;;5066246;28;20148;-51
2024/02/07 10:54:55;;;;;;;8.90;2.20;;;9.60;99.90;;;;;;5066203;28;20082;-50
2024/02/07 10:57:27;;;;;;;8.82;2.20;;;9.20;99.90;;;;;;5064839;28;20036;-49
2024/02/07 10:59:58;;;;;;;6.82;2.42;;;8.90;99.90;;;;;;5065041;28;20182;-51
2024/02/07 11:02:24;;;;;;;5.30;1.80;;;8.80;99.90;;;;;;5065875;28;20029;-48
2024/02/07 11:04:49;;;;;;;10.98;2.25;;;8.70;99.90;;;;;;5065088;28;20025;-50
2024/02/07 11:07:16;;;;;;;10.43;3.47;;;8.60;99.90;;;;;;5064750;28;20041;-51
2024/02/07 11:09:43;;;;;;;10.90;3.22;;;8.50;99.90;;;;;;5066056;28;20047;-50
2024/02/07 11:12:10;;;;;;;10.55;4.78;;;8.70;99.90;;;;;;5065528;28;20255;-50
2024/02/07 11:14:36;;;;;;;7.30;4.05;;;9.80;99.90;;;;;;5064479;28;20029;-51
2024/02/07 11:17:02;;;;;;;7.65;3.03;;;10.40;99.90;;;;;;5064385;28;20231;-51
2024/02/07 11:19:28;;;;;;;6.65;2.47;;;10.60;99.90;;;;;;5065749;28;20036;-49
2024/02/07 11:21:53;;;;;;;6.53;2.60;;;10.50;99.90;;;;;;5065658;28;20131;-50
2024/02/07 11:24:21;;;;;;;7.00;2.25;;;10.80;99.90;;;;;;5065330;28;20055;-50
2024/02/07 11:26:47;;;;;;;9.88;2.55;;;10.30;99.90;;;;;;5065152;28;20082;-50
2024/02/07 11:29:13;;;;;;;9.48;2.63;;;9.90;99.90;;;;;;5064489;28;20044;-48
2024/02/07 11:31:40;;;;;;;10.38;2.95;;;9.80;99.90;;;;;;5064563;28;20059;-49
2024/02/07 11:34:07;;;;;;;8.07;2.40;;;9.90;99.90;;;;;;5047482;28;20028;-49
2024/02/07 11:36:33;;;;;;;7.63;2.65;;;9.70;99.90;;;;;;5064455;28;20096;-51
2024/02/07 11:38:59;;;;;;;9.40;2.50;;;9.60;99.90;;;;;;5064023;28;20181;-50
2024/02/07 11:41:24;;;;;;;11.65;2.33;;;9.70;99.90;;;;;;5064990;28;20052;-48
2024/02/07 11:43:51;;;;;;;11.27;2.78;;;10.10;99.90;;;;;;5063780;28;20028;-48
2024/02/07 11:46:17;;;;;;;7.60;2.45;;;10.40;99.90;;;;;;5064509;28;20322;-49
2024/02/07 11:48:43;;;;;;;26.17;10.93;;;10.70;99.90;;;;;;5064764;28;20029;-49
2024/02/07 11:51:09;;;;;;;19.58;6.10;;;10.70;99.90;;;;;;5064731;28;20274;-52
2024/02/07 11:53:38;;;;;;;45.33;19.25;;;10.60;99.90;;;;;;5064625;28;20293;-50
2024/02/07 11:56:22;;;;;;;8.90;3.55;;;10.60;99.90;;;;;;5064567;28;20037;-50
2024/02/07 11:58:49;;;;;;;9.50;2.45;;;10.60;99.90;;;;;;5064788;28;20179;-51
2024/02/07 12:01:15;;;;;;;6.93;2.70;;;10.60;99.90;;;;;;5064764;28;20021;-48
2024/02/07 12:03:41;;;;;;;8.98;3.30;;;10.70;99.90;;;;;;5064950;28;20037;-51
2024/02/07 12:06:08;;;;;;;9.50;3.10;;;10.80;99.90;;;;;;5064781;28;20101;-50
2024/02/07 12:08:34;;;;;;;6.68;2.97;;;10.60;99.90;;;;;;5064837;28;20296;-50
2024/02/07 12:10:59;;;;;;;10.38;3.33;;;10.20;99.90;;;;;;5064631;28;20029;-50
2024/02/07 12:13:25;;;;;;;10.13;3.33;;;10.10;99.90;;;;;;5065098;28;20037;-51
2024/02/07 12:15:51;;;;;;;9.52;3.30;;;10.20;99.90;;;;;;5064703;28;20090;-51
2024/02/07 12:18:17;;;;;;;9.25;4.68;;;10.20;99.90;;;;;;5064440;28;20235;-50
2024/02/07 12:20:42;;;;;;;10.45;2.80;;;10.10;99.90;;;;;;5064378;28;20032;-49
2024/02/07 12:23:08;;;;;;;12.70;3.50;;;9.90;99.90;;;;;;5063437;28;20205;-50
2024/02/07 12:25:34;;;;;;;11.68;2.70;;;9.70;99.90;;;;;;5064468;28;20029;-50
2024/02/07 12:28:10;;;;;;;7.72;2.25;;;9.60;99.90;;;;;;5064104;28;20198;-50
2024/02/07 12:30:36;;;;;;;9.75;3.40;;;9.70;99.90;;;;;;5063303;28;20033;-50
2024/02/07 12:33:02;;;;;;;14.90;4.82;;;9.90;99.90;;;;;;5063167;28;20057;-50
2024/02/07 12:35:28;;;;;;;11.52;3.30;;;10.20;99.90;;;;;;5062674;28;20198;-51
2024/02/07 12:37:58;;;;;;;14.00;3.35;;;10.40;99.90;;;;;;5064385;28;20024;-49
2024/02/07 12:40:28;;;;;;;13.20;4.20;;;10.40;99.90;;;;;;5063212;28;20096;-49
2024/02/07 12:42:56;;;;;;;6.97;3.05;;;10.60;99.90;;;;;;5063186;28;20025;-48
2024/02/07 12:45:22;;;;;;;10.88;2.80;;;11.10;99.90;;;;;;5063693;28;20033;-50
2024/02/07 12:47:47;;;;;;;11.10;3.17;;;11.90;99.90;;;;;;5063796;28;20052;-49
2024/02/07 12:50:13;;;;;;;8.18;2.45;;;12.50;99.90;;;;;;5063922;28;20024;-49
2024/02/07 12:52:39;;;;;;;8.73;2.20;;;12.90;99.90;;;;;;5064410;28;20040;-50
2024/02/07 12:55:05;;;;;;;10.02;2.97;;;12.90;99.90;;;;;;5064321;28;20095;-50
2024/02/07 12:57:31;;;;;;;11.98;2.28;;;12.50;99.90;;;;;;5064455;28;20260;-49
2024/02/07 13:00:07;;;;;;;8.82;3.03;;;12.10;99.90;;;;;;5067039;28;20029;-51
2024/02/07 13:02:33;;;;;;;8.90;2.60;;;12.60;99.90;;;;;;5067811;28;20048;-51
2024/02/07 13:04:59;;;;;;;7.20;1.92;;;12.40;99.90;;;;;;5067814;28;20312;-51
2024/02/07 13:07:25;;;;;;;5.80;2.25;;;12.20;99.90;;;;;;5068036;28;20048;-50
2024/02/07 13:09:51;;;;;;;8.02;2.40;;;12.40;99.90;;;;;;5067703;28;20044;-51
2024/02/07 13:12:17;;;;;;;10.50;2.53;;;11.90;99.90;;;;;;5067933;28;20299;-51
2024/02/07 13:14:42;;;;;;;9.50;2.50;;;11.20;99.90;;;;;;5067316;28;20025;-51
2024/02/07 13:17:09;;;;;;;10.57;2.88;;;11.00;99.90;;;;;;5067534;28;20299;-51
2024/02/07 13:19:34;;;;;;;11.00;3.85;;;10.90;99.90;;;;;;5050030;28;20183;-51
2024/02/07 13:22:00;;;;;;;9.55;2.08;;;11.00;99.90;;;;;;5067513;28;20029;-51
2024/02/07 13:24:26;;;;;;;5.47;1.77;;;11.00;99.90;;;;;;5066796;28;20029;-51
2024/02/07 13:26:51;;;;;;;7.95;2.53;;;11.00;99.90;;;;;;5067699;28;20049;-50
2024/02/07 13:29:20;;;;;;;10.05;1.83;;;10.90;99.90;;;;;;5067897;28;20263;-49
2024/02/07 13:31:46;;;;;;;10.00;2.10;;;10.90;99.90;;;;;;5067445;28;20291;-51
2024/02/07 13:34:13;;;;;;;8.82;1.95;;;10.60;99.90;;;;;;5066238;28;20312;-49
2024/02/07 13:36:39;;;;;;;3.80;1.50;;;10.70;99.90;;;;;;5067417;28;20016;-52
2024/02/07 13:39:05;;;;;;;6.45;1.90;;;10.70;99.90;;;;;;5067416;28;20031;-52
2024/02/07 13:41:31;;;;;;;8.25;1.70;;;10.70;99.90;;;;;;5067139;28;20059;-51
2024/02/07 13:44:00;;;;;;;7.78;2.33;;;10.60;99.90;;;;;;5066269;28;20198;-49
2024/02/07 13:46:26;;;;;;;18.63;11.27;;;10.60;99.90;;;;;;5066956;28;20086;-49
2024/02/07 13:48:54;;;;;;;11.30;2.90;;;10.40;99.90;;;;;;5067170;28;20032;-48
2024/02/07 13:51:20;;;;;;;10.55;2.90;;;10.40;99.90;;;;;;5066464;28;20171;-49